createdAt,value
2023-03-29T00:00:21.788Z,42.33
2023-03-29T00:03:25.531Z,41.05
2023-03-29T00:06:31.947Z,40.62
2023-03-29T00:09:35.194Z,40.01
2023-03-29T00:12:40.700Z,40.01
2023-03-29T00:15:44.021Z,40.20
2023-03-29T00:18:47.362Z,39.92
2023-03-29T00:21:50.926Z,39.26
2023-03-29T00:25:04.831Z,39.57
2023-03-29T00:28:08.292Z,38.40
2023-03-29T00:31:15.202Z,37.42
2023-03-29T00:34:18.922Z,35.67
2023-03-29T00:37:22.238Z,34.35
2023-03-29T00:40:25.610Z,34.52
2023-03-29T00:43:29.407Z,34.50
2023-03-29T00:46:35.512Z,34.38
2023-03-29T00:50:05.650Z,34.92
2023-03-29T00:53:13.175Z,36.09
2023-03-29T00:56:40.563Z,36.81
2023-03-29T00:59:46.025Z,36.56
2023-03-29T01:02:55.001Z,36.90
2023-03-29T01:06:03.838Z,36.28
2023-03-29T01:09:10.060Z,36.10
2023-03-29T01:12:17.956Z,36.82
2023-03-29T01:15:27.261Z,36.66
2023-03-29T01:18:32.164Z,37.16
2023-03-29T01:21:54.965Z,37.22
2023-03-29T01:25:26.909Z,37.62
2023-03-29T01:28:40.063Z,37.60
2023-03-29T01:31:52.462Z,37.22
2023-03-29T01:35:04.887Z,36.75
2023-03-29T01:38:14.629Z,36.03
2023-03-29T01:41:18.115Z,36.71
2023-03-29T01:45:16.940Z,35.54
2023-03-29T01:48:32.136Z,35.64
2023-03-29T01:51:46.377Z,35.97
2023-03-29T01:54:57.739Z,36.70
2023-03-29T01:58:03.958Z,36.12
2023-03-29T02:01:15.316Z,35.42
2023-03-29T02:04:28.546Z,35.19
2023-03-29T02:07:32.982Z,33.79
2023-03-29T02:10:37.708Z,34.31
2023-03-29T02:13:41.711Z,34.90
2023-03-29T02:16:46.926Z,33.86
2023-03-29T02:20:05.362Z,33.80
2023-03-29T02:23:36.946Z,33.63
2023-03-29T02:26:41.505Z,34.02
2023-03-29T02:29:47.592Z,33.55
2023-03-29T02:33:24.618Z,32.97
2023-03-29T02:36:39.006Z,33.49
2023-03-29T02:39:42.826Z,33.75
2023-03-29T02:42:47.579Z,34.47
2023-03-29T02:45:53.386Z,33.02
2023-03-29T02:48:59.546Z,32.96
2023-03-29T02:52:12.400Z,33.85
2023-03-29T02:55:19.631Z,33.08
2023-03-29T02:58:27.208Z,33.35
2023-03-29T03:01:30.911Z,33.54
2023-03-29T03:04:36.216Z,32.86
2023-03-29T03:07:42.520Z,32.21
2023-03-29T03:10:47.442Z,33.12
2023-03-29T03:13:50.983Z,32.96
2023-03-29T03:16:54.373Z,33.69
2023-03-29T03:19:57.877Z,33.37
2023-03-29T03:23:08.557Z,33.25
2023-03-29T03:26:18.655Z,32.33
2023-03-29T03:29:25.384Z,31.94
2023-03-29T03:32:35.717Z,32.46
2023-03-29T03:36:06.996Z,32.79
2023-03-29T03:39:20.834Z,32.60
2023-03-29T03:42:24.986Z,31.67
2023-03-29T03:45:29.720Z,31.34
2023-03-29T03:48:52.798Z,30.75
2023-03-29T03:52:01.181Z,31.72
2023-03-29T03:55:06.218Z,32.60
2023-03-29T03:58:34.938Z,31.93
2023-03-29T04:05:05.182Z,33.56
2023-03-29T04:08:14.622Z,31.80
2023-03-29T04:11:40.806Z,33.29
2023-03-29T04:14:48.520Z,32.57
2023-03-29T04:18:00.510Z,30.36
2023-03-29T04:21:13.856Z,30.61
2023-03-29T04:24:20.542Z,32.14
2023-03-29T04:27:49.928Z,29.64
2023-03-29T04:31:15.935Z,30.65
2023-03-29T04:34:29.346Z,30.47
2023-03-29T04:37:34.056Z,29.34
2023-03-29T04:40:39.038Z,30.52
2023-03-29T04:43:49.168Z,31.74
2023-03-29T04:47:00.616Z,31.44
2023-03-29T04:50:14.513Z,31.24
2023-03-29T04:53:20.484Z,29.78
2023-03-29T04:56:24.570Z,29.37
2023-03-29T04:59:47.049Z,29.74
2023-03-29T05:03:15.193Z,30.71
2023-03-29T05:06:39.284Z,30.09
2023-03-29T05:09:44.411Z,30.41
2023-03-29T05:12:56.934Z,30.05
2023-03-29T05:16:01.390Z,30.53
2023-03-29T05:19:09.464Z,31.27
2023-03-29T05:22:23.429Z,31.59
2023-03-29T05:25:27.701Z,31.71
2023-03-29T05:28:31.625Z,31.38
2023-03-29T05:31:36.494Z,30.97
2023-03-29T05:34:45.341Z,30.84
2023-03-29T05:37:49.018Z,30.57
2023-03-29T05:40:53.978Z,30.94
2023-03-29T05:44:23.659Z,30.09
2023-03-29T05:47:33.312Z,29.27
2023-03-29T05:50:38.193Z,29.83
2023-03-29T05:53:42.410Z,29.78
2023-03-29T05:56:46.022Z,28.69
2023-03-29T05:59:51.481Z,29.61
2023-03-29T06:03:13.667Z,27.85
2023-03-29T06:06:27.091Z,28.63
2023-03-29T06:09:32.456Z,29.47
2023-03-29T06:12:41.589Z,29.27
2023-03-29T06:15:45.736Z,29.19
2023-03-29T06:18:49.554Z,29.31
2023-03-29T06:21:55.770Z,30.24
2023-03-29T06:25:02.511Z,30.81
2023-03-29T06:28:09.496Z,29.71
2023-03-29T06:31:13.871Z,29.79
2023-03-29T06:34:18.043Z,30.15
2023-03-29T06:37:34.804Z,29.80
2023-03-29T06:40:53.350Z,30.99
2023-03-29T06:43:59.599Z,29.19
2023-03-29T06:47:09.890Z,30.18
2023-03-29T06:50:15.275Z,29.90
2023-03-29T06:53:31.421Z,29.86
2023-03-29T07:00:02.390Z,29.14
2023-03-29T07:03:28.639Z,29.83
2023-03-29T07:06:33.229Z,29.67
2023-03-29T07:09:40.627Z,30.05
2023-03-29T07:13:02.758Z,29.10
2023-03-29T07:16:07.336Z,29.99
2023-03-29T07:19:27.945Z,29.60
2023-03-29T07:22:31.400Z,29.21
2023-03-29T07:25:40.035Z,28.17
2023-03-29T07:28:44.091Z,28.68
2023-03-29T07:31:58.500Z,28.24
2023-03-29T07:35:34.606Z,29.10
2023-03-29T07:38:39.207Z,28.16
2023-03-29T07:41:48.649Z,28.75
2023-03-29T07:44:55.098Z,29.14
2023-03-29T07:48:00.347Z,28.50
2023-03-29T07:51:28.080Z,28.53
2023-03-29T07:54:39.667Z,29.00
2023-03-29T07:58:06.567Z,28.60
2023-03-29T08:01:18.774Z,27.89
2023-03-29T08:05:06.316Z,29.56
2023-03-29T08:08:25.581Z,27.87
2023-03-29T08:11:33.834Z,28.90
2023-03-29T08:14:39.992Z,27.20
2023-03-29T08:17:51.845Z,26.61
2023-03-29T08:20:55.430Z,27.87
2023-03-29T08:23:58.969Z,28.06
2023-03-29T08:27:25.310Z,27.70
2023-03-29T08:30:31.911Z,27.97
2023-03-29T08:33:37.757Z,28.86
2023-03-29T08:37:00.288Z,28.79
2023-03-29T08:40:22.243Z,30.04
2023-03-29T08:44:15.654Z,29.95
2023-03-29T08:47:39.707Z,30.16
2023-03-29T08:50:53.455Z,30.29
2023-03-29T08:54:17.465Z,30.32
2023-03-29T08:57:48.158Z,30.25
2023-03-29T09:01:06.640Z,31.00
2023-03-29T09:04:24.624Z,31.55
2023-03-29T09:07:38.699Z,32.02
2023-03-29T09:11:02.851Z,31.88
2023-03-29T09:14:40.986Z,32.74
2023-03-29T09:18:12.763Z,32.84
2023-03-29T09:21:48.872Z,32.99
2023-03-29T09:25:25.954Z,33.20
2023-03-29T09:28:49.033Z,32.93
2023-03-29T09:31:53.634Z,33.25
2023-03-29T09:35:28.603Z,33.66
2023-03-29T09:38:32.828Z,33.61
2023-03-29T09:42:04.994Z,33.35
2023-03-29T09:45:09.763Z,33.85
2023-03-29T09:48:21.631Z,33.91
2023-03-29T09:51:33.893Z,34.22
2023-03-29T09:54:37.609Z,34.04
2023-03-29T09:58:23.380Z,34.77
2023-03-29T10:01:42.225Z,35.39
2023-03-29T10:04:46.253Z,35.13
2023-03-29T10:07:54.378Z,35.63
2023-03-29T10:11:00.309Z,35.02
2023-03-29T10:14:14.826Z,35.46
2023-03-29T10:17:35.254Z,35.72
2023-03-29T10:20:41.355Z,36.18
2023-03-29T10:23:45.047Z,36.43
2023-03-29T10:26:50.165Z,36.35
2023-03-29T10:29:55.150Z,36.29
2023-03-29T10:33:02.977Z,36.47
2023-03-29T10:36:08.748Z,36.64
2023-03-29T10:39:16.918Z,37.13
2023-03-29T10:42:29.498Z,37.94
2023-03-29T10:45:36.526Z,38.37
2023-03-29T10:48:42.654Z,38.78
2023-03-29T10:55:07.640Z,38.94
2023-03-29T10:58:40.013Z,39.65
2023-03-29T11:01:53.555Z,39.57
2023-03-29T11:05:26.635Z,40.71
2023-03-29T11:08:48.859Z,41.58
2023-03-29T11:12:12.213Z,42.07
2023-03-29T11:15:31.572Z,42.11
2023-03-29T11:18:40.036Z,42.22
2023-03-29T11:22:01.436Z,42.46
2023-03-29T11:25:19.677Z,42.65
2023-03-29T11:28:36.701Z,42.73
2023-03-29T11:31:47.283Z,42.80
2023-03-29T11:35:12.968Z,43.00
2023-03-29T11:38:42.295Z,43.13
2023-03-29T11:41:54.688Z,43.28
2023-03-29T11:45:01.948Z,43.44
2023-03-29T11:48:19.945Z,43.76
2023-03-29T11:51:54.332Z,43.82
2023-03-29T11:55:06.116Z,44.06
2023-03-29T11:58:37.446Z,44.04
2023-03-29T12:01:57.243Z,44.48
2023-03-29T12:05:11.136Z,45.06
2023-03-29T12:08:19.228Z,45.18
2023-03-29T12:11:32.888Z,45.12
2023-03-29T12:14:54.891Z,45.46
2023-03-29T12:18:19.528Z,45.07
2023-03-29T12:21:25.396Z,44.96
2023-03-29T12:24:33.865Z,45.04
2023-03-29T12:28:38.344Z,44.81
2023-03-29T12:32:07.768Z,45.14
2023-03-29T12:35:22.886Z,44.88
2023-03-29T12:38:59.105Z,44.88
2023-03-29T12:43:09.248Z,45.13
2023-03-29T12:46:32.478Z,45.32
2023-03-29T12:49:39.927Z,45.25
2023-03-29T12:52:44.115Z,45.48
2023-03-29T12:55:56.741Z,45.66
2023-03-29T12:59:27.728Z,46.39
2023-03-29T13:02:37.724Z,46.49
2023-03-29T13:05:41.283Z,46.69
2023-03-29T13:08:45.889Z,47.08
2023-03-29T13:12:08.606Z,47.05
2023-03-29T13:15:18.423Z,47.33
2023-03-29T13:18:27.546Z,47.83
2023-03-29T13:21:54.642Z,47.95
2023-03-29T13:25:19.131Z,48.52
2023-03-29T13:28:51.858Z,48.79
2023-03-29T13:32:20.398Z,49.08
2023-03-29T13:35:42.700Z,49.23
2023-03-29T13:38:49.449Z,49.31
2023-03-29T13:41:54.853Z,49.64
2023-03-29T13:45:17.432Z,49.79
2023-03-29T13:48:49.585Z,50.05
2023-03-29T13:52:31.269Z,50.21
2023-03-29T13:55:44.388Z,50.52
2023-03-29T13:58:52.749Z,50.47
2023-03-29T14:02:01.278Z,50.61
2023-03-29T14:05:09.403Z,50.90
2023-03-29T14:08:29.936Z,51.13
2023-03-29T14:11:33.952Z,51.49
2023-03-29T14:14:42.623Z,51.71
2023-03-29T14:18:00.772Z,51.62
2023-03-29T14:21:04.858Z,51.58
2023-03-29T14:24:13.577Z,51.66
2023-03-29T14:27:18.285Z,52.09
2023-03-29T14:30:32.384Z,52.32
2023-03-29T14:33:37.157Z,52.40
2023-03-29T14:36:41.038Z,52.76
2023-03-29T14:39:45.300Z,53.14
2023-03-29T14:42:49.788Z,53.36
2023-03-29T14:45:53.252Z,53.47
2023-03-29T14:48:57.744Z,53.50
2023-03-29T14:52:01.196Z,52.88
2023-03-29T14:55:04.850Z,52.50
2023-03-29T14:58:37.102Z,51.93
2023-03-29T15:01:45.320Z,51.80
2023-03-29T15:04:56.590Z,51.66
2023-03-29T15:08:00.960Z,51.63
2023-03-29T15:11:12.620Z,51.35
2023-03-29T15:14:19.277Z,51.56
2023-03-29T15:17:50.298Z,51.87
2023-03-29T15:20:55.543Z,51.26
2023-03-29T15:24:01.235Z,51.50
2023-03-29T15:27:14.460Z,51.13
2023-03-29T15:30:19.886Z,50.87
2023-03-29T15:33:24.814Z,50.46
2023-03-29T15:36:28.288Z,50.57
2023-03-29T15:39:33.132Z,50.47
2023-03-29T15:42:37.276Z,50.49
2023-03-29T15:45:40.763Z,50.85
2023-03-29T15:48:44.310Z,51.02
2023-03-29T15:51:47.799Z,51.15
2023-03-29T15:54:51.063Z,51.48
2023-03-29T15:57:55.206Z,51.52
2023-03-29T16:01:12.147Z,51.66
2023-03-29T16:04:17.878Z,51.67
2023-03-29T16:07:21.650Z,51.53
2023-03-29T16:10:24.924Z,51.46
2023-03-29T16:13:28.269Z,51.25
2023-03-29T16:16:31.619Z,50.94
2023-03-29T16:19:35.622Z,50.98
2023-03-29T16:22:38.887Z,50.92
2023-03-29T16:25:42.280Z,50.62
2023-03-29T16:28:45.656Z,50.42
2023-03-29T16:31:50.106Z,50.59
2023-03-29T16:34:54.233Z,50.27
2023-03-29T16:37:57.659Z,50.44
2023-03-29T16:41:02.211Z,50.96
2023-03-29T16:44:05.655Z,51.17
2023-03-29T16:47:12.930Z,51.43
2023-03-29T16:50:19.372Z,51.77
2023-03-29T16:53:23.025Z,52.07
2023-03-29T16:56:28.161Z,52.23
2023-03-29T16:59:31.433Z,52.40
2023-03-29T17:02:35.167Z,52.33
2023-03-29T17:05:42.047Z,52.63
2023-03-29T17:08:45.390Z,52.79
2023-03-29T17:11:48.850Z,53.77
2023-03-29T17:14:53.310Z,54.65
2023-03-29T17:17:56.780Z,55.32
2023-03-29T17:21:00.201Z,55.79
2023-03-29T17:24:03.449Z,56.28
2023-03-29T17:27:06.709Z,56.90
2023-03-29T17:30:10.552Z,56.93
2023-03-29T17:33:14.308Z,57.23
2023-03-29T17:36:17.593Z,57.50
2023-03-29T17:39:20.913Z,57.72
2023-03-29T17:42:24.169Z,57.59
2023-03-29T17:45:27.774Z,57.95
2023-03-29T17:48:33.476Z,58.22
2023-03-29T17:51:36.944Z,57.98
2023-03-29T17:54:40.191Z,58.39
2023-03-29T17:57:44.538Z,58.71
2023-03-29T18:00:47.932Z,59.11
2023-03-29T18:03:51.387Z,59.36
2023-03-29T18:06:55.633Z,59.79
2023-03-29T18:09:59.235Z,60.17
2023-03-29T18:13:02.541Z,60.51
2023-03-29T18:16:07.526Z,60.76
2023-03-29T18:19:11.452Z,60.98
2023-03-29T18:22:14.689Z,61.28
2023-03-29T18:25:18.937Z,61.49
2023-03-29T18:28:23.570Z,61.95
2023-03-29T18:31:28.568Z,61.98
2023-03-29T18:34:32.033Z,62.11
2023-03-29T18:37:35.297Z,62.36
2023-03-29T18:40:39.902Z,62.61
2023-03-29T18:43:44.740Z,62.77
2023-03-29T18:46:48.726Z,62.91
2023-03-29T18:49:52.005Z,63.28
2023-03-29T18:52:55.302Z,62.99
2023-03-29T18:55:58.548Z,63.25
2023-03-29T18:59:05.724Z,63.63
2023-03-29T19:02:09.035Z,63.47
2023-03-29T19:05:12.605Z,63.84
2023-03-29T19:08:16.285Z,63.93
2023-03-29T19:11:19.560Z,64.31
2023-03-29T19:14:25.841Z,64.19
2023-03-29T19:17:29.205Z,64.34
2023-03-29T19:20:32.807Z,64.45
2023-03-29T19:23:36.916Z,64.66
2023-03-29T19:26:40.588Z,64.95
2023-03-29T19:29:43.932Z,65.48
2023-03-29T19:32:47.535Z,65.54
2023-03-29T19:35:52.530Z,65.64
2023-03-29T19:38:56.348Z,65.74
2023-03-29T19:41:59.666Z,65.94
2023-03-29T19:45:04.598Z,65.98
2023-03-29T19:48:19.457Z,66.34
2023-03-29T19:51:27.388Z,66.04
2023-03-29T19:54:31.407Z,66.29
2023-03-29T19:57:34.841Z,66.19
2023-03-29T20:00:39.500Z,66.41
2023-03-29T20:03:43.831Z,66.22
2023-03-29T20:06:47.591Z,66.67
2023-03-29T20:09:53.043Z,66.28
2023-03-29T20:12:57.705Z,66.13
2023-03-29T20:16:01.030Z,66.25
2023-03-29T20:19:06.681Z,66.23
2023-03-29T20:22:09.961Z,66.10
2023-03-29T20:25:13.400Z,66.31
2023-03-29T20:28:16.659Z,65.92
2023-03-29T20:31:20.007Z,65.55
2023-03-29T20:34:23.445Z,65.91
2023-03-29T20:37:26.799Z,65.69
2023-03-29T20:40:30.804Z,65.47
2023-03-29T20:43:41.824Z,65.38
2023-03-29T20:47:08.762Z,65.91
2023-03-29T20:50:12.236Z,66.28
2023-03-29T20:53:16.986Z,66.73
2023-03-29T20:56:21.454Z,67.04
2023-03-29T20:59:24.756Z,67.40
2023-03-29T21:02:28.122Z,67.53
2023-03-29T21:05:33.742Z,67.28
2023-03-29T21:08:39.301Z,67.41
2023-03-29T21:11:42.932Z,66.88
2023-03-29T21:14:48.042Z,66.09
2023-03-29T21:17:51.649Z,65.06
2023-03-29T21:20:54.928Z,64.39
2023-03-29T21:23:58.234Z,64.62
2023-03-29T21:27:01.917Z,65.02
2023-03-29T21:30:09.369Z,65.64
2023-03-29T21:33:12.317Z,66.40
2023-03-29T21:36:16.047Z,67.10
2023-03-29T21:39:19.430Z,67.76
2023-03-29T21:42:22.677Z,68.48
2023-03-29T21:45:26.082Z,68.85
2023-03-29T21:48:29.691Z,68.88
2023-03-29T21:51:33.358Z,69.17
2023-03-29T21:54:37.049Z,69.23
2023-03-29T21:57:40.339Z,69.38
2023-03-29T22:00:43.724Z,69.45
2023-03-29T22:03:48.225Z,69.64
2023-03-29T22:06:51.532Z,69.58
2023-03-29T22:09:55.392Z,69.46
2023-03-29T22:12:58.685Z,69.58
2023-03-29T22:16:04.464Z,69.41
2023-03-29T22:19:09.305Z,69.26
2023-03-29T22:22:14.904Z,69.25
2023-03-29T22:25:19.877Z,69.44
2023-03-29T22:28:23.162Z,69.55
2023-03-29T22:31:27.980Z,69.58
2023-03-29T22:34:32.059Z,69.47
2023-03-29T22:37:40.291Z,69.26
2023-03-29T22:40:43.783Z,69.11
2023-03-29T22:43:47.520Z,68.84
2023-03-29T22:46:51.002Z,68.39
2023-03-29T22:49:54.317Z,67.59
2023-03-29T22:52:57.596Z,64.35
2023-03-29T22:56:00.931Z,61.91
2023-03-29T22:59:04.366Z,60.20
2023-03-29T23:02:08.334Z,57.37
2023-03-29T23:05:11.826Z,55.29
2023-03-29T23:08:15.124Z,52.39
2023-03-29T23:11:18.415Z,51.87
2023-03-29T23:14:21.701Z,49.84
2023-03-29T23:17:25.013Z,47.26
2023-03-29T23:20:30.844Z,46.05
2023-03-29T23:23:34.320Z,45.27
2023-03-29T23:26:38.218Z,44.39
2023-03-29T23:29:41.700Z,43.00
2023-03-29T23:32:45.133Z,43.14
2023-03-29T23:35:49.435Z,43.03
2023-03-29T23:38:53.046Z,42.24
2023-03-29T23:41:57.328Z,42.13
2023-03-29T23:45:00.918Z,40.10
2023-03-29T23:48:04.466Z,39.95
2023-03-29T23:51:08.809Z,39.14
2023-03-29T23:54:15.938Z,38.00
2023-03-29T23:57:19.442Z,37.13
